sensor_id;sensor_type;location;lat;lon;timestamp;temperature;humidity
23237;DHT22;11787;52.018;8.570;2023-08-06T00:01:39;15.50;99.90
23237;DHT22;11787;52.018;8.570;2023-08-06T00:04:05;15.50;99.90
23237;DHT22;11787;52.018;8.570;2023-08-06T00:06:30;15.40;99.90
23237;DHT22;11787;52.018;8.570;2023-08-06T00:08:56;15.40;99.90
23237;DHT22;11787;52.018;8.570;2023-08-06T00:11:21;15.40;99.90
23237;DHT22;11787;52.018;8.570;2023-08-06T00:13:47;15.40;99.90
23237;DHT22;11787;52.018;8.570;2023-08-06T00:16:13;15.30;99.90
23237;DHT22;11787;52.018;8.570;2023-08-06T00:18:39;15.30;99.90
23237;DHT22;11787;52.018;8.570;2023-08-06T00:21:05;15.40;99.90
23237;DHT22;11787;52.018;8.570;2023-08-06T00:23:30;15.40;99.90
23237;DHT22;11787;52.018;8.570;2023-08-06T00:25:56;15.40;99.90
23237;DHT22;11787;52.018;8.570;2023-08-06T00:28:21;15.40;99.90
23237;DHT22;11787;52.018;8.570;2023-08-06T00:30:53;15.40;99.90
23237;DHT22;11787;52.018;8.570;2023-08-06T00:33:19;15.40;99.90
23237;DHT22;11787;52.018;8.570;2023-08-06T00:35:44;15.40;99.90
23237;DHT22;11787;52.018;8.570;2023-08-06T00:38:10;15.40;99.90
23237;DHT22;11787;52.018;8.570;2023-08-06T00:40:36;15.40;99.90
23237;DHT22;11787;52.018;8.570;2023-08-06T00:43:01;15.40;99.90
23237;DHT22;11787;52.018;8.570;2023-08-06T00:45:27;15.50;99.90
23237;DHT22;11787;52.018;8.570;2023-08-06T00:47:55;15.50;99.90
23237;DHT22;11787;52.018;8.570;2023-08-06T00:50:21;15.50;99.90
23237;DHT22;11787;52.018;8.570;2023-08-06T00:52:48;15.50;99.90
23237;DHT22;11787;52.018;8.570;2023-08-06T00:55:15;15.40;99.90
23237;DHT22;11787;52.018;8.570;2023-08-06T00:57:41;15.50;99.90
23237;DHT22;11787;52.018;8.570;2023-08-06T01:00:07;15.40;99.90
23237;DHT22;11787;52.018;8.570;2023-08-06T01:02:33;15.40;99.90
23237;DHT22;11787;52.018;8.570;2023-08-06T01:04:58;15.40;99.90
23237;DHT22;11787;52.018;8.570;2023-08-06T01:16:00;15.50;99.90
23237;DHT22;11787;52.018;8.570;2023-08-06T01:18:27;15.50;99.90
23237;DHT22;11787;52.018;8.570;2023-08-06T01:20:52;15.50;99.90
23237;DHT22;11787;52.018;8.570;2023-08-06T01:23:18;15.50;99.90
23237;DHT22;11787;52.018;8.570;2023-08-06T01:28:26;15.50;99.90
23237;DHT22;11787;52.018;8.570;2023-08-06T01:30:55;15.50;99.90
23237;DHT22;11787;52.018;8.570;2023-08-06T01:33:24;15.50;99.90
23237;DHT22;11787;52.018;8.570;2023-08-06T01:35:52;15.50;99.90
23237;DHT22;11787;52.018;8.570;2023-08-06T01:38:19;15.50;99.90
23237;DHT22;11787;52.018;8.570;2023-08-06T01:40:45;15.50;99.90
23237;DHT22;11787;52.018;8.570;2023-08-06T01:43:10;15.60;99.90
23237;DHT22;11787;52.018;8.570;2023-08-06T01:45:36;15.60;99.90
23237;DHT22;11787;52.018;8.570;2023-08-06T01:48:02;15.60;99.90
23237;DHT22;11787;52.018;8.570;2023-08-06T01:50:27;15.60;99.90
23237;DHT22;11787;52.018;8.570;2023-08-06T01:52:53;15.60;99.90
23237;DHT22;11787;52.018;8.570;2023-08-06T01:55:18;15.50;99.90
23237;DHT22;11787;52.018;8.570;2023-08-06T01:57:44;15.50;99.90
23237;DHT22;11787;52.018;8.570;2023-08-06T02:00:10;15.50;99.90
23237;DHT22;11787;52.018;8.570;2023-08-06T02:02:36;15.50;99.90
23237;DHT22;11787;52.018;8.570;2023-08-06T02:05:01;15.50;99.90
23237;DHT22;11787;52.018;8.570;2023-08-06T02:07:27;15.50;99.90
23237;DHT22;11787;52.018;8.570;2023-08-06T02:09:52;15.50;99.90
23237;DHT22;11787;52.018;8.570;2023-08-06T02:12:18;15.50;99.90
23237;DHT22;11787;52.018;8.570;2023-08-06T02:14:43;15.50;99.90
23237;DHT22;11787;52.018;8.570;2023-08-06T02:17:09;15.50;99.90
23237;DHT22;11787;52.018;8.570;2023-08-06T02:19:34;15.50;99.90
23237;DHT22;11787;52.018;8.570;2023-08-06T02:22:00;15.50;99.90
23237;DHT22;11787;52.018;8.570;2023-08-06T02:24:25;15.40;99.90
23237;DHT22;11787;52.018;8.570;2023-08-06T02:26:51;15.40;99.90
23237;DHT22;11787;52.018;8.570;2023-08-06T02:29:20;15.40;99.90
23237;DHT22;11787;52.018;8.570;2023-08-06T02:31:46;15.40;99.90
23237;DHT22;11787;52.018;8.570;2023-08-06T02:34:11;15.30;99.90
23237;DHT22;11787;52.018;8.570;2023-08-06T02:36:37;15.30;99.90
23237;DHT22;11787;52.018;8.570;2023-08-06T02:39:02;15.20;99.90
23237;DHT22;11787;52.018;8.570;2023-08-06T02:41:28;15.10;99.90
23237;DHT22;11787;52.018;8.570;2023-08-06T02:43:53;15.00;99.90
23237;DHT22;11787;52.018;8.570;2023-08-06T02:46:19;15.00;99.90
23237;DHT22;11787;52.018;8.570;2023-08-06T02:48:44;14.90;99.90
23237;DHT22;11787;52.018;8.570;2023-08-06T02:51:10;14.90;99.90
23237;DHT22;11787;52.018;8.570;2023-08-06T02:53:35;14.90;99.90
23237;DHT22;11787;52.018;8.570;2023-08-06T02:56:01;14.90;99.90
23237;DHT22;11787;52.018;8.570;2023-08-06T02:58:26;14.90;99.90
23237;DHT22;11787;52.018;8.570;2023-08-06T03:01:01;14.80;99.90
23237;DHT22;11787;52.018;8.570;2023-08-06T03:03:28;14.90;99.90
23237;DHT22;11787;52.018;8.570;2023-08-06T03:05:54;14.90;99.90
23237;DHT22;11787;52.018;8.570;2023-08-06T03:08:19;14.90;99.90
23237;DHT22;11787;52.018;8.570;2023-08-06T03:10:48;14.80;99.90
23237;DHT22;11787;52.018;8.570;2023-08-06T03:13:13;14.80;99.90
23237;DHT22;11787;52.018;8.570;2023-08-06T03:15:39;14.80;99.90
23237;DHT22;11787;52.018;8.570;2023-08-06T03:18:04;14.70;99.90
23237;DHT22;11787;52.018;8.570;2023-08-06T03:20:31;14.70;99.90
23237;DHT22;11787;52.018;8.570;2023-08-06T03:22:57;14.70;99.90
23237;DHT22;11787;52.018;8.570;2023-08-06T03:25:22;14.70;99.90
23237;DHT22;11787;52.018;8.570;2023-08-06T03:27:48;14.60;99.90
23237;DHT22;11787;52.018;8.570;2023-08-06T03:30:13;14.60;99.90
23237;DHT22;11787;52.018;8.570;2023-08-06T03:32:39;14.60;99.90
23237;DHT22;11787;52.018;8.570;2023-08-06T03:35:05;14.50;99.90
23237;DHT22;11787;52.018;8.570;2023-08-06T03:37:30;14.50;99.90
23237;DHT22;11787;52.018;8.570;2023-08-06T03:39:55;14.50;99.90
23237;DHT22;11787;52.018;8.570;2023-08-06T03:42:21;14.50;99.90
23237;DHT22;11787;52.018;8.570;2023-08-06T03:44:46;14.50;99.90
23237;DHT22;11787;52.018;8.570;2023-08-06T03:47:13;14.50;99.90
23237;DHT22;11787;52.018;8.570;2023-08-06T03:49:38;14.60;99.90
23237;DHT22;11787;52.018;8.570;2023-08-06T03:52:04;14.60;99.90
23237;DHT22;11787;52.018;8.570;2023-08-06T03:54:30;14.60;99.90
23237;DHT22;11787;52.018;8.570;2023-08-06T03:56:55;14.50;99.90
23237;DHT22;11787;52.018;8.570;2023-08-06T03:59:21;14.50;99.90
23237;DHT22;11787;52.018;8.570;2023-08-06T04:01:46;14.40;99.90
23237;DHT22;11787;52.018;8.570;2023-08-06T04:04:12;14.30;99.90
23237;DHT22;11787;52.018;8.570;2023-08-06T04:06:37;14.30;99.90
23237;DHT22;11787;52.018;8.570;2023-08-06T04:09:03;14.30;99.90
23237;DHT22;11787;52.018;8.570;2023-08-06T04:11:28;14.30;99.90
23237;DHT22;11787;52.018;8.570;2023-08-06T04:13:54;14.30;99.90
23237;DHT22;11787;52.018;8.570;2023-08-06T04:16:20;14.30;99.90
23237;DHT22;11787;52.018;8.570;2023-08-06T04:18:46;14.40;99.90
23237;DHT22;11787;52.018;8.570;2023-08-06T04:21:11;14.40;99.90
23237;DHT22;11787;52.018;8.570;2023-08-06T04:23:37;14.50;99.90
23237;DHT22;11787;52.018;8.570;2023-08-06T04:26:02;14.50;99.90
23237;DHT22;11787;52.018;8.570;2023-08-06T04:28:28;14.50;99.90
23237;DHT22;11787;52.018;8.570;2023-08-06T04:30:53;14.50;99.90
23237;DHT22;11787;52.018;8.570;2023-08-06T04:33:19;14.60;99.90
23237;DHT22;11787;52.018;8.570;2023-08-06T04:35:45;14.60;99.90
23237;DHT22;11787;52.018;8.570;2023-08-06T04:38:10;14.70;99.90
23237;DHT22;11787;52.018;8.570;2023-08-06T04:40:36;14.70;99.90
23237;DHT22;11787;52.018;8.570;2023-08-06T04:43:01;14.70;99.90
23237;DHT22;11787;52.018;8.570;2023-08-06T04:45:27;14.70;99.90
23237;DHT22;11787;52.018;8.570;2023-08-06T04:47:52;14.70;99.90
23237;DHT22;11787;52.018;8.570;2023-08-06T04:50:19;14.80;99.90
23237;DHT22;11787;52.018;8.570;2023-08-06T04:52:44;14.80;99.90
23237;DHT22;11787;52.018;8.570;2023-08-06T04:55:10;14.70;99.90
23237;DHT22;11787;52.018;8.570;2023-08-06T04:57:35;14.80;99.90
23237;DHT22;11787;52.018;8.570;2023-08-06T05:00:01;14.80;99.90
23237;DHT22;11787;52.018;8.570;2023-08-06T05:02:26;14.80;99.90
23237;DHT22;11787;52.018;8.570;2023-08-06T05:04:52;14.80;99.90
23237;DHT22;11787;52.018;8.570;2023-08-06T05:07:17;14.80;99.90
23237;DHT22;11787;52.018;8.570;2023-08-06T05:09:43;14.80;99.90
23237;DHT22;11787;52.018;8.570;2023-08-06T05:12:08;14.90;99.90
23237;DHT22;11787;52.018;8.570;2023-08-06T05:14:34;14.90;99.90
23237;DHT22;11787;52.018;8.570;2023-08-06T05:16:59;14.90;99.90
23237;DHT22;11787;52.018;8.570;2023-08-06T05:19:27;14.90;99.90
23237;DHT22;11787;52.018;8.570;2023-08-06T05:21:53;15.00;99.90
23237;DHT22;11787;52.018;8.570;2023-08-06T05:24:18;15.00;99.90
23237;DHT22;11787;52.018;8.570;2023-08-06T05:26:43;15.10;99.90
23237;DHT22;11787;52.018;8.570;2023-08-06T05:29:11;15.10;99.90
23237;DHT22;11787;52.018;8.570;2023-08-06T05:31:37;15.10;99.90
23237;DHT22;11787;52.018;8.570;2023-08-06T05:34:03;15.20;99.90
23237;DHT22;11787;52.018;8.570;2023-08-06T05:36:28;15.20;99.90
23237;DHT22;11787;52.018;8.570;2023-08-06T05:38:54;15.20;99.90
23237;DHT22;11787;52.018;8.570;2023-08-06T05:41:19;15.20;99.90
23237;DHT22;11787;52.018;8.570;2023-08-06T05:43:45;15.30;99.90
23237;DHT22;11787;52.018;8.570;2023-08-06T05:46:11;15.30;99.90
23237;DHT22;11787;52.018;8.570;2023-08-06T05:48:36;15.30;99.90
23237;DHT22;11787;52.018;8.570;2023-08-06T05:51:02;15.40;99.90
23237;DHT22;11787;52.018;8.570;2023-08-06T05:53:28;15.50;99.90
23237;DHT22;11787;52.018;8.570;2023-08-06T05:55:53;15.70;99.90
23237;DHT22;11787;52.018;8.570;2023-08-06T05:58:19;15.80;99.90
23237;DHT22;11787;52.018;8.570;2023-08-06T06:00:45;15.90;99.90
23237;DHT22;11787;52.018;8.570;2023-08-06T06:03:11;16.00;99.90
23237;DHT22;11787;52.018;8.570;2023-08-06T06:05:39;16.00;99.90
23237;DHT22;11787;52.018;8.570;2023-08-06T06:08:04;16.00;99.90
23237;DHT22;11787;52.018;8.570;2023-08-06T06:10:30;15.90;99.90
23237;DHT22;11787;52.018;8.570;2023-08-06T06:12:55;15.90;99.90
23237;DHT22;11787;52.018;8.570;2023-08-06T06:15:21;15.90;99.90
23237;DHT22;11787;52.018;8.570;2023-08-06T06:17:46;15.90;99.90
23237;DHT22;11787;52.018;8.570;2023-08-06T06:20:12;15.90;99.90
23237;DHT22;11787;52.018;8.570;2023-08-06T06:22:37;16.00;99.90
23237;DHT22;11787;52.018;8.570;2023-08-06T06:25:03;16.00;99.90
23237;DHT22;11787;52.018;8.570;2023-08-06T06:27:29;16.00;99.90
23237;DHT22;11787;52.018;8.570;2023-08-06T06:29:54;16.10;99.90
23237;DHT22;11787;52.018;8.570;2023-08-06T06:32:21;16.30;99.90
23237;DHT22;11787;52.018;8.570;2023-08-06T06:34:46;16.60;99.90
23237;DHT22;11787;52.018;8.570;2023-08-06T06:37:12;16.70;99.90
23237;DHT22;11787;52.018;8.570;2023-08-06T06:39:37;16.90;99.90
23237;DHT22;11787;52.018;8.570;2023-08-06T06:42:03;16.90;99.90
23237;DHT22;11787;52.018;8.570;2023-08-06T06:44:29;17.00;99.90
23237;DHT22;11787;52.018;8.570;2023-08-06T06:46:54;17.10;99.90
23237;DHT22;11787;52.018;8.570;2023-08-06T06:49:20;17.10;99.90
23237;DHT22;11787;52.018;8.570;2023-08-06T06:51:46;17.20;99.90
23237;DHT22;11787;52.018;8.570;2023-08-06T06:54:11;17.30;99.90
23237;DHT22;11787;52.018;8.570;2023-08-06T06:56:37;17.30;99.90
23237;DHT22;11787;52.018;8.570;2023-08-06T06:59:02;17.40;99.90
23237;DHT22;11787;52.018;8.570;2023-08-06T07:01:28;17.50;99.90
23237;DHT22;11787;52.018;8.570;2023-08-06T07:03:53;17.50;99.90
23237;DHT22;11787;52.018;8.570;2023-08-06T07:06:19;17.60;99.90
23237;DHT22;11787;52.018;8.570;2023-08-06T07:08:44;17.60;99.90
23237;DHT22;11787;52.018;8.570;2023-08-06T07:11:10;17.70;99.90
23237;DHT22;11787;52.018;8.570;2023-08-06T07:13:35;17.80;99.90
23237;DHT22;11787;52.018;8.570;2023-08-06T07:16:01;17.80;99.90
23237;DHT22;11787;52.018;8.570;2023-08-06T07:18:27;17.80;99.90
23237;DHT22;11787;52.018;8.570;2023-08-06T07:20:53;17.90;99.90
23237;DHT22;11787;52.018;8.570;2023-08-06T07:23:23;17.90;99.90
23237;DHT22;11787;52.018;8.570;2023-08-06T07:25:48;18.00;99.90
23237;DHT22;11787;52.018;8.570;2023-08-06T07:28:14;18.00;99.90
23237;DHT22;11787;52.018;8.570;2023-08-06T07:30:40;17.90;99.90
23237;DHT22;11787;52.018;8.570;2023-08-06T07:33:06;17.90;99.90
23237;DHT22;11787;52.018;8.570;2023-08-06T07:35:31;17.90;99.90
23237;DHT22;11787;52.018;8.570;2023-08-06T07:37:57;17.90;99.90
23237;DHT22;11787;52.018;8.570;2023-08-06T07:40:22;17.90;99.90
23237;DHT22;11787;52.018;8.570;2023-08-06T07:42:48;18.00;99.90
23237;DHT22;11787;52.018;8.570;2023-08-06T07:45:13;18.00;99.90
23237;DHT22;11787;52.018;8.570;2023-08-06T07:47:39;18.10;99.90
23237;DHT22;11787;52.018;8.570;2023-08-06T07:50:05;18.20;99.90
23237;DHT22;11787;52.018;8.570;2023-08-06T07:52:30;18.30;99.90
23237;DHT22;11787;52.018;8.570;2023-08-06T07:54:56;18.40;99.90
23237;DHT22;11787;52.018;8.570;2023-08-06T07:57:21;18.30;99.90
23237;DHT22;11787;52.018;8.570;2023-08-06T07:59:47;18.40;99.90
23237;DHT22;11787;52.018;8.570;2023-08-06T08:02:12;18.40;99.90
23237;DHT22;11787;52.018;8.570;2023-08-06T08:04:38;18.50;99.90
23237;DHT22;11787;52.018;8.570;2023-08-06T08:07:03;18.50;99.90
23237;DHT22;11787;52.018;8.570;2023-08-06T08:09:29;18.70;99.90
23237;DHT22;11787;52.018;8.570;2023-08-06T08:11:55;18.80;99.90
23237;DHT22;11787;52.018;8.570;2023-08-06T08:14:20;18.70;99.90
23237;DHT22;11787;52.018;8.570;2023-08-06T08:16:46;18.60;99.90
23237;DHT22;11787;52.018;8.570;2023-08-06T08:19:11;18.70;99.90
23237;DHT22;11787;52.018;8.570;2023-08-06T08:21:36;18.70;99.90
23237;DHT22;11787;52.018;8.570;2023-08-06T08:24:03;18.80;99.90
23237;DHT22;11787;52.018;8.570;2023-08-06T08:26:28;18.80;99.90
23237;DHT22;11787;52.018;8.570;2023-08-06T08:28:54;18.80;99.90
23237;DHT22;11787;52.018;8.570;2023-08-06T08:31:19;19.00;99.90
23237;DHT22;11787;52.018;8.570;2023-08-06T08:33:45;19.10;99.90
23237;DHT22;11787;52.018;8.570;2023-08-06T08:36:10;19.00;99.90
23237;DHT22;11787;52.018;8.570;2023-08-06T08:38:36;19.00;99.90
23237;DHT22;11787;52.018;8.570;2023-08-06T08:41:01;19.10;99.90
23237;DHT22;11787;52.018;8.570;2023-08-06T08:43:27;19.00;99.90
23237;DHT22;11787;52.018;8.570;2023-08-06T08:45:53;19.10;99.90
23237;DHT22;11787;52.018;8.570;2023-08-06T08:48:21;19.20;99.90
23237;DHT22;11787;52.018;8.570;2023-08-06T08:50:47;19.30;99.90
23237;DHT22;11787;52.018;8.570;2023-08-06T08:53:13;19.20;99.90
23237;DHT22;11787;52.018;8.570;2023-08-06T08:55:39;19.20;99.90
23237;DHT22;11787;52.018;8.570;2023-08-06T08:58:05;19.20;99.90
23237;DHT22;11787;52.018;8.570;2023-08-06T09:00:31;19.20;99.90
23237;DHT22;11787;52.018;8.570;2023-08-06T09:02:57;19.20;99.90
23237;DHT22;11787;52.018;8.570;2023-08-06T09:05:24;19.30;99.90
23237;DHT22;11787;52.018;8.570;2023-08-06T09:07:53;19.20;99.90
23237;DHT22;11787;52.018;8.570;2023-08-06T09:10:19;19.30;99.90
23237;DHT22;11787;52.018;8.570;2023-08-06T09:12:48;19.30;99.90
23237;DHT22;11787;52.018;8.570;2023-08-06T09:15:14;19.40;99.90
23237;DHT22;11787;52.018;8.570;2023-08-06T09:17:39;19.40;99.90
23237;DHT22;11787;52.018;8.570;2023-08-06T09:20:14;19.50;99.90
23237;DHT22;11787;52.018;8.570;2023-08-06T09:22:40;19.60;99.90
23237;DHT22;11787;52.018;8.570;2023-08-06T09:25:06;19.80;99.90
23237;DHT22;11787;52.018;8.570;2023-08-06T09:27:37;19.80;99.90
23237;DHT22;11787;52.018;8.570;2023-08-06T09:30:03;19.80;99.90
23237;DHT22;11787;52.018;8.570;2023-08-06T09:32:50;19.80;99.90
23237;DHT22;11787;52.018;8.570;2023-08-06T09:35:18;19.80;99.90
23237;DHT22;11787;52.018;8.570;2023-08-06T09:37:43;19.90;99.90
23237;DHT22;11787;52.018;8.570;2023-08-06T09:43:07;20.40;99.90
23237;DHT22;11787;52.018;8.570;2023-08-06T09:45:33;21.00;99.90
23237;DHT22;11787;52.018;8.570;2023-08-06T09:47:59;21.30;99.90
23237;DHT22;11787;52.018;8.570;2023-08-06T09:50:32;21.50;99.90
23237;DHT22;11787;52.018;8.570;2023-08-06T09:52:58;21.60;99.90
23237;DHT22;11787;52.018;8.570;2023-08-06T09:55:24;21.70;99.90
23237;DHT22;11787;52.018;8.570;2023-08-06T09:57:50;22.00;99.90
23237;DHT22;11787;52.018;8.570;2023-08-06T10:00:16;21.90;99.90
23237;DHT22;11787;52.018;8.570;2023-08-06T10:02:42;22.00;99.90
23237;DHT22;11787;52.018;8.570;2023-08-06T10:05:08;21.70;99.90
23237;DHT22;11787;52.018;8.570;2023-08-06T10:07:34;21.20;99.90
23237;DHT22;11787;52.018;8.570;2023-08-06T10:10:00;21.00;99.90
23237;DHT22;11787;52.018;8.570;2023-08-06T10:12:26;21.40;99.90
23237;DHT22;11787;52.018;8.570;2023-08-06T10:14:54;21.50;99.90
23237;DHT22;11787;52.018;8.570;2023-08-06T10:17:20;21.80;99.90
23237;DHT22;11787;52.018;8.570;2023-08-06T10:19:46;22.20;99.90
23237;DHT22;11787;52.018;8.570;2023-08-06T10:22:13;22.40;99.90
23237;DHT22;11787;52.018;8.570;2023-08-06T10:24:51;22.40;99.90
23237;DHT22;11787;52.018;8.570;2023-08-06T10:27:31;22.30;99.90
23237;DHT22;11787;52.018;8.570;2023-08-06T10:32:46;22.60;99.90
23237;DHT22;11787;52.018;8.570;2023-08-06T10:35:27;23.20;99.90
23237;DHT22;11787;52.018;8.570;2023-08-06T10:37:53;23.60;99.90
23237;DHT22;11787;52.018;8.570;2023-08-06T10:40:20;23.60;99.90
23237;DHT22;11787;52.018;8.570;2023-08-06T10:42:46;23.50;99.90
23237;DHT22;11787;52.018;8.570;2023-08-06T10:45:12;23.20;99.90
23237;DHT22;11787;52.018;8.570;2023-08-06T10:47:39;22.90;99.90
23237;DHT22;11787;52.018;8.570;2023-08-06T10:50:07;22.90;99.90
23237;DHT22;11787;52.018;8.570;2023-08-06T10:52:34;23.20;99.90
23237;DHT22;11787;52.018;8.570;2023-08-06T10:54:59;23.80;99.90
23237;DHT22;11787;52.018;8.570;2023-08-06T10:57:25;23.90;99.90
23237;DHT22;11787;52.018;8.570;2023-08-06T10:59:51;23.50;99.90
23237;DHT22;11787;52.018;8.570;2023-08-06T11:02:16;22.90;99.90
23237;DHT22;11787;52.018;8.570;2023-08-06T11:04:42;22.60;99.90
23237;DHT22;11787;52.018;8.570;2023-08-06T11:07:08;22.30;99.90
23237;DHT22;11787;52.018;8.570;2023-08-06T11:09:33;22.20;99.90
23237;DHT22;11787;52.018;8.570;2023-08-06T11:11:59;22.20;99.90
23237;DHT22;11787;52.018;8.570;2023-08-06T11:14:24;22.20;99.90
23237;DHT22;11787;52.018;8.570;2023-08-06T11:16:50;22.10;99.90
23237;DHT22;11787;52.018;8.570;2023-08-06T11:19:15;21.90;99.90
23237;DHT22;11787;52.018;8.570;2023-08-06T11:21:42;21.90;99.90
23237;DHT22;11787;52.018;8.570;2023-08-06T11:24:12;21.80;99.90
23237;DHT22;11787;52.018;8.570;2023-08-06T11:26:37;21.70;99.90
23237;DHT22;11787;52.018;8.570;2023-08-06T11:29:05;21.80;99.90
23237;DHT22;11787;52.018;8.570;2023-08-06T11:31:31;21.90;99.90
23237;DHT22;11787;52.018;8.570;2023-08-06T11:33:56;21.90;99.90
23237;DHT22;11787;52.018;8.570;2023-08-06T11:36:31;21.80;99.90
23237;DHT22;11787;52.018;8.570;2023-08-06T11:38:57;21.80;99.90
23237;DHT22;11787;52.018;8.570;2023-08-06T11:41:23;21.80;99.90
23237;DHT22;11787;52.018;8.570;2023-08-06T11:43:49;21.80;99.90
23237;DHT22;11787;52.018;8.570;2023-08-06T11:46:14;21.90;99.90
23237;DHT22;11787;52.018;8.570;2023-08-06T11:48:55;21.90;99.90
23237;DHT22;11787;52.018;8.570;2023-08-06T11:51:26;21.90;99.90
23237;DHT22;11787;52.018;8.570;2023-08-06T11:53:56;21.80;99.90
23237;DHT22;11787;52.018;8.570;2023-08-06T11:56:21;21.70;99.90
23237;DHT22;11787;52.018;8.570;2023-08-06T11:58:47;21.70;99.90
23237;DHT22;11787;52.018;8.570;2023-08-06T12:01:13;21.80;99.90
23237;DHT22;11787;52.018;8.570;2023-08-06T12:03:39;21.80;99.90
23237;DHT22;11787;52.018;8.570;2023-08-06T12:06:05;21.90;99.90
23237;DHT22;11787;52.018;8.570;2023-08-06T12:08:31;21.90;99.90
23237;DHT22;11787;52.018;8.570;2023-08-06T12:10:56;21.90;99.90
23237;DHT22;11787;52.018;8.570;2023-08-06T12:13:22;21.90;99.90
23237;DHT22;11787;52.018;8.570;2023-08-06T12:15:47;22.00;99.90
23237;DHT22;11787;52.018;8.570;2023-08-06T12:18:12;22.10;99.90
23237;DHT22;11787;52.018;8.570;2023-08-06T12:20:38;22.20;99.90
23237;DHT22;11787;52.018;8.570;2023-08-06T12:23:04;22.40;99.90
23237;DHT22;11787;52.018;8.570;2023-08-06T12:25:29;22.70;99.90
23237;DHT22;11787;52.018;8.570;2023-08-06T12:27:55;23.10;99.90
23237;DHT22;11787;52.018;8.570;2023-08-06T12:30:20;23.60;99.90
23237;DHT22;11787;52.018;8.570;2023-08-06T12:32:46;24.10;99.90
23237;DHT22;11787;52.018;8.570;2023-08-06T12:35:11;24.20;99.90
23237;DHT22;11787;52.018;8.570;2023-08-06T12:37:37;24.10;99.90
23237;DHT22;11787;52.018;8.570;2023-08-06T12:40:05;23.90;99.90
23237;DHT22;11787;52.018;8.570;2023-08-06T12:42:31;23.80;99.90
23237;DHT22;11787;52.018;8.570;2023-08-06T12:44:56;23.70;99.90
23237;DHT22;11787;52.018;8.570;2023-08-06T12:47:22;24.10;99.90
23237;DHT22;11787;52.018;8.570;2023-08-06T12:49:47;24.20;99.90
23237;DHT22;11787;52.018;8.570;2023-08-06T12:52:14;24.00;99.90
23237;DHT22;11787;52.018;8.570;2023-08-06T12:54:40;24.00;99.90
23237;DHT22;11787;52.018;8.570;2023-08-06T12:57:06;23.90;99.90
23237;DHT22;11787;52.018;8.570;2023-08-06T12:59:32;24.00;99.90
23237;DHT22;11787;52.018;8.570;2023-08-06T13:01:58;23.60;99.90
23237;DHT22;11787;52.018;8.570;2023-08-06T13:04:24;23.60;99.90
23237;DHT22;11787;52.018;8.570;2023-08-06T13:06:49;23.40;99.90
23237;DHT22;11787;52.018;8.570;2023-08-06T13:09:15;23.30;99.90
23237;DHT22;11787;52.018;8.570;2023-08-06T13:11:41;23.10;99.90
23237;DHT22;11787;52.018;8.570;2023-08-06T13:14:10;22.90;99.90
23237;DHT22;11787;52.018;8.570;2023-08-06T13:16:37;22.90;99.90
23237;DHT22;11787;52.018;8.570;2023-08-06T13:19:03;22.80;99.90
23237;DHT22;11787;52.018;8.570;2023-08-06T13:21:32;22.80;99.90
23237;DHT22;11787;52.018;8.570;2023-08-06T13:23:58;22.70;99.90
23237;DHT22;11787;52.018;8.570;2023-08-06T13:26:24;22.60;99.90
23237;DHT22;11787;52.018;8.570;2023-08-06T13:28:49;22.40;99.90
23237;DHT22;11787;52.018;8.570;2023-08-06T13:31:16;22.40;99.90
23237;DHT22;11787;52.018;8.570;2023-08-06T13:33:41;22.40;99.90
23237;DHT22;11787;52.018;8.570;2023-08-06T13:36:07;22.30;99.90
23237;DHT22;11787;52.018;8.570;2023-08-06T13:38:32;22.20;99.90
23237;DHT22;11787;52.018;8.570;2023-08-06T13:40:58;22.10;99.90
23237;DHT22;11787;52.018;8.570;2023-08-06T13:43:24;21.90;99.90
23237;DHT22;11787;52.018;8.570;2023-08-06T13:45:49;21.80;99.90
23237;DHT22;11787;52.018;8.570;2023-08-06T13:48:15;21.70;99.90
23237;DHT22;11787;52.018;8.570;2023-08-06T13:50:40;21.20;99.90
23237;DHT22;11787;52.018;8.570;2023-08-06T13:53:06;20.90;99.90
23237;DHT22;11787;52.018;8.570;2023-08-06T13:55:31;20.50;99.90
23237;DHT22;11787;52.018;8.570;2023-08-06T13:57:57;20.40;99.90
23237;DHT22;11787;52.018;8.570;2023-08-06T14:00:22;20.20;99.90
23237;DHT22;11787;52.018;8.570;2023-08-06T14:02:48;19.80;99.90
23237;DHT22;11787;52.018;8.570;2023-08-06T14:05:13;19.30;99.90
23237;DHT22;11787;52.018;8.570;2023-08-06T14:07:39;18.90;99.90
23237;DHT22;11787;52.018;8.570;2023-08-06T14:10:04;18.60;99.90
23237;DHT22;11787;52.018;8.570;2023-08-06T14:12:30;18.60;99.90
23237;DHT22;11787;52.018;8.570;2023-08-06T14:14:56;18.60;99.90
23237;DHT22;11787;52.018;8.570;2023-08-06T14:17:21;18.30;99.90
23237;DHT22;11787;52.018;8.570;2023-08-06T14:19:47;18.00;99.90
23237;DHT22;11787;52.018;8.570;2023-08-06T14:22:12;17.90;99.90
23237;DHT22;11787;52.018;8.570;2023-08-06T14:24:38;17.80;99.90
23237;DHT22;11787;52.018;8.570;2023-08-06T14:27:03;17.70;99.90
23237;DHT22;11787;52.018;8.570;2023-08-06T14:29:31;17.80;99.90
23237;DHT22;11787;52.018;8.570;2023-08-06T14:31:56;17.80;99.90
23237;DHT22;11787;52.018;8.570;2023-08-06T14:34:22;17.80;99.90
23237;DHT22;11787;52.018;8.570;2023-08-06T14:36:47;17.80;99.90
23237;DHT22;11787;52.018;8.570;2023-08-06T14:39:13;17.80;99.90
23237;DHT22;11787;52.018;8.570;2023-08-06T14:41:39;17.90;99.90
23237;DHT22;11787;52.018;8.570;2023-08-06T14:44:04;18.00;99.90
23237;DHT22;11787;52.018;8.570;2023-08-06T14:46:30;18.00;99.90
23237;DHT22;11787;52.018;8.570;2023-08-06T14:48:55;18.00;99.90
23237;DHT22;11787;52.018;8.570;2023-08-06T14:51:21;18.00;99.90
23237;DHT22;11787;52.018;8.570;2023-08-06T14:53:46;18.10;99.90
23237;DHT22;11787;52.018;8.570;2023-08-06T14:56:12;18.10;99.90
23237;DHT22;11787;52.018;8.570;2023-08-06T14:58:37;18.10;99.90
23237;DHT22;11787;52.018;8.570;2023-08-06T15:01:03;18.10;99.90
23237;DHT22;11787;52.018;8.570;2023-08-06T15:03:28;18.20;99.90
23237;DHT22;11787;52.018;8.570;2023-08-06T15:05:56;18.10;99.90
23237;DHT22;11787;52.018;8.570;2023-08-06T15:08:21;18.20;99.90
23237;DHT22;11787;52.018;8.570;2023-08-06T15:10:50;18.20;99.90
23237;DHT22;11787;52.018;8.570;2023-08-06T15:13:17;18.10;99.90
23237;DHT22;11787;52.018;8.570;2023-08-06T15:15:42;18.20;99.90
23237;DHT22;11787;52.018;8.570;2023-08-06T15:18:10;18.20;99.90
23237;DHT22;11787;52.018;8.570;2023-08-06T15:20:36;18.20;99.90
23237;DHT22;11787;52.018;8.570;2023-08-06T15:23:02;18.20;99.90
23237;DHT22;11787;52.018;8.570;2023-08-06T15:25:27;18.10;99.90
23237;DHT22;11787;52.018;8.570;2023-08-06T15:27:53;18.10;99.90
23237;DHT22;11787;52.018;8.570;2023-08-06T15:30:18;18.10;99.90
23237;DHT22;11787;52.018;8.570;2023-08-06T15:32:46;18.10;99.90
23237;DHT22;11787;52.018;8.570;2023-08-06T15:35:12;18.10;99.90
23237;DHT22;11787;52.018;8.570;2023-08-06T15:37:37;18.10;99.90
23237;DHT22;11787;52.018;8.570;2023-08-06T15:40:03;18.10;99.90